^^
Meteo Knjazevac Station Historical Data
Daily Summary for January 10, 2021 Units:  Metric    English   Both
Daily Weekly Monthly Yearly Custom
  High: Low: Average:
Temperature: 27.9 °C 9.6 °C 17.8 °C
Dew Point: 14 °C 7 °C 10.4 °C
Humidity: 90% 37% 65%
Wind Speed: 9.7km/h 0km/h 2.4km/h
Wind Gust: 22.5km/h - -
Wind- - SSW
Pressure: 1021.6 hPa 1018.2 hPa -
Precipitation: 0 mm    
Historical Graphs
 
 
Tabular Data for January 10, 2021
Time Temperature Dew Point Pressure Wind Wind Speed Wind Gust Humidity Rainfall Rate (Hourly) solar Conditions
00:00 13.9 °C 10.1 °C 1021.6 hPa Calm   4.8 km/h 78% 0 mm 0 W/m2
00:10 13.9 °C 10.1 °C 1021.6 hPa WSW 1.6 km/h 3.2 km/h 78% 0 mm 0 W/m2
00:20 13.6 °C 9.8 °C 1021.2 hPa Calm   3.2 km/h 78% 0 mm 0 W/m2
00:30 13.5 °C 9.7 °C 1021.2 hPa WSW 3.2 km/h 3.2 km/h 78% 0 mm 0 W/m2
00:40 13.4 °C 9.8 °C 1021.2 hPa West 1.6 km/h 3.2 km/h 79% 0 mm 0 W/m2
00:50 13.4 °C 9.8 °C 1021.2 hPa WNW 1.6 km/h 6.4 km/h 79% 0 mm 0 W/m2
01:00 13.3 °C 9.7 °C 1021.2 hPa West 1.6 km/h 4.8 km/h 79% 0 mm 0 W/m2
01:10 13.3 °C 9.7 °C 1020.9 hPa NNW 3.2 km/h 4.8 km/h 79% 0 mm 0 W/m2
01:20 13.3 °C 9.7 °C 1020.9 hPa Calm   3.2 km/h 79% 0 mm 0 W/m2
01:30 13.2 °C 9.6 °C 1020.9 hPa NNW 1.6 km/h 3.2 km/h 79% 0 mm 0 W/m2
01:40 13 °C 9.6 °C 1020.9 hPa Calm   3.2 km/h 80% 0 mm 0 W/m2
01:50 12.9 °C 9.6 °C 1020.9 hPa Calm     80% 0 mm 0 W/m2
02:00 12.8 °C 9.4 °C 1020.9 hPa Calm   1.6 km/h 80% 0 mm 0 W/m2
02:10 12.7 °C 9.3 °C 1020.9 hPa Calm     80% 0 mm 0 W/m2
02:20 12.6 °C 9.4 °C 1020.9 hPa Calm   3.2 km/h 81% 0 mm 0 W/m2
02:30 12.6 °C 9.4 °C 1020.9 hPa Calm   1.6 km/h 81% 0 mm 0 W/m2
02:40 12.3 °C 9.2 °C 1020.9 hPa WNW 1.6 km/h 3.2 km/h 81% 0 mm 0 W/m2
02:50 12.2 °C 9.4 °C 1020.9 hPa NW 1.6 km/h 3.2 km/h 83% 0 mm 0 W/m2
03:20 11.8 °C 9 °C 1020.9 hPa Calm   1.6 km/h 83% 0 mm 0 W/m2
03:30 11.6 °C 9 °C 1020.9 hPa Calm   1.6 km/h 84% 0 mm 0 W/m2
03:40 11.4 °C 8.8 °C 1020.9 hPa Calm   1.6 km/h 84% 0 mm 0 W/m2
03:50 11.3 °C 8.7 °C 1020.9 hPa Calm   3.2 km/h 84% 0 mm 0 W/m2
04:00 11.1 °C 8.6 °C 1020.9 hPa Calm   1.6 km/h 84% 0 mm 0 W/m2
04:10 11 °C 8.6 °C 1020.9 hPa Calm   3.2 km/h 85% 0 mm 0 W/m2
04:20 10.8 °C 8.4 °C 1020.9 hPa Calm   3.2 km/h 85% 0 mm 0 W/m2
04:30 10.6 °C 8.2 °C 1020.9 hPa Calm     85% 0 mm 0 W/m2
04:40 10.4 °C 8 °C 1020.9 hPa Calm   1.6 km/h 85% 0 mm 0 W/m2
04:50 10.3 °C 8.1 °C 1020.9 hPa Calm   3.2 km/h 86% 0 mm 0 W/m2
05:00 10.2 °C 7.9 °C 1021.2 hPa Calm   1.6 km/h 86% 0 mm 0 W/m2
05:10 10.1 °C 7.9 °C 1021.2 hPa NW 1.6 km/h 3.2 km/h 86% 0 mm 0 W/m2
05:20 9.9 °C 7.7 °C 1021.2 hPa Calm   3.2 km/h 86% 0 mm 0 W/m2
05:30 9.8 °C 7.9 °C 1021.2 hPa Calm   1.6 km/h 88% 0 mm 0 W/m2
05:40 9.8 °C 7.9 °C 1021.2 hPa West 1.6 km/h 1.6 km/h 88% 0 mm 0 W/m2
05:50 9.7 °C 7.8 °C 1021.2 hPa Calm     88% 0 mm 0 W/m2
06:00 9.7 °C 7.8 °C 1021.2 hPa Calm   3.2 km/h 88% 0 mm 0 W/m2
06:10 9.6 °C 7.9 °C 1021.2 hPa Calm   1.6 km/h 89% 0 mm 4 W/m2
06:20 9.6 °C 7.9 °C 1021.6 hPa Calm   1.6 km/h 89% 0 mm 10 W/m2
06:30 9.6 °C 7.9 °C 1021.6 hPa WNW 1.6 km/h 3.2 km/h 89% 0 mm 20 W/m2
06:40 9.7 °C 8 °C 1021.6 hPa NW 1.6 km/h 3.2 km/h 89% 0 mm 34 W/m2
06:50 9.8 °C 8.1 °C 1021.6 hPa Calm   3.2 km/h 89% 0 mm 52 W/m2
07:00 9.9 °C 8.2 °C 1021.6 hPa West 1.6 km/h 1.6 km/h 89% 0 mm 86 W/m2
07:10 10.1 °C 8.6 °C 1021.6 hPa NW 1.6 km/h 3.2 km/h 90% 0 mm 117 W/m2
07:20 10.4 °C 8.8 °C 1021.6 hPa Calm   4.8 km/h 90% 0 mm 138 W/m2
07:30 10.8 °C 9.2 °C 1021.6 hPa NW 1.6 km/h 3.2 km/h 90% 0 mm 156 W/m2
07:40 11.1 °C 9.5 °C 1021.6 hPa Calm   3.2 km/h 90% 0 mm 114 W/m2
07:50 11.3 °C 9.6 °C 1021.6 hPa Calm   1.6 km/h 89% 0 mm 110 W/m2
08:00 11.6 °C 9.8 °C 1021.6 hPa Calm   1.6 km/h 89% 0 mm 126 W/m2
08:10 11.9 °C 10.1 °C 1021.6 hPa Calm   1.6 km/h 89% 0 mm 288 W/m2
08:20 12.2 °C 10.3 °C 1021.6 hPa Calm   3.2 km/h 88% 0 mm 175 W/m2
08:30 12.7 °C 10.6 °C 1021.6 hPa Calm   3.2 km/h 87% 0 mm 231 W/m2
08:40 13.4 °C 11.1 °C 1021.6 hPa Calm   3.2 km/h 86% 0 mm 318 W/m2
08:50 14.2 °C 11.6 °C 1021.6 hPa East 1.6 km/h 4.8 km/h 84% 0 mm 352 W/m2
09:00 14.8 °C 11.6 °C 1021.6 hPa Calm   8 km/h 81% 0 mm 264 W/m2
09:10 15.3 °C 11.9 °C 1021.6 hPa NNE 1.6 km/h 11.3 km/h 80% 0 mm 439 W/m2
09:20 16 °C 12.2 °C 1021.6 hPa NE 1.6 km/h 6.4 km/h 78% 0 mm 529 W/m2
09:30 16.8 °C 12.1 °C 1021.6 hPa SE 1.6 km/h 9.7 km/h 74% 0 mm 554 W/m2
09:40 17.5 °C 12.4 °C 1021.6 hPa SE 1.6 km/h 8 km/h 72% 0 mm 579 W/m2
09:50 18.1 °C 12.6 °C 1021.6 hPa ENE 1.6 km/h 11.3 km/h 70% 0 mm 507 W/m2
10:00 18.3 °C 12.5 °C 1021.6 hPa ESE 4.8 km/h 9.7 km/h 69% 0 mm 625 W/m2
10:10 18.9 °C 12.6 °C 1021.6 hPa ENE 3.2 km/h 11.3 km/h 67% 0 mm 646 W/m2
10:20 19.2 °C 12.9 °C 1021.2 hPa East 1.6 km/h 8 km/h 67% 0 mm 666 W/m2
10:30 19.7 °C 12.9 °C 1021.2 hPa ENE 3.2 km/h 9.7 km/h 65% 0 mm 543 W/m2
10:40 20.2 °C 13.4 °C 1021.2 hPa NE 1.6 km/h 11.3 km/h 65% 0 mm 341 W/m2
10:50 20.9 °C 13.8 °C 1020.9 hPa East 1.6 km/h 8 km/h 64% 0 mm 186 W/m2
11:00 21.5 °C 13.9 °C 1020.9 hPa North 1.6 km/h 9.7 km/h 62% 0 mm 543 W/m2
11:10 22.2 °C 13.8 °C 1020.9 hPa WSW 1.6 km/h 8 km/h 59% 0 mm 244 W/m2
11:20 22.7 °C 14 °C 1020.9 hPa ESE 1.6 km/h 8 km/h 58% 0 mm 709 W/m2
11:30 23 °C 14 °C 1020.5 hPa North 1.6 km/h 11.3 km/h 57% 0 mm 378 W/m2
11:40 23 °C 13.4 °C 1020.5 hPa East 3.2 km/h 8 km/h 55% 0 mm 660 W/m2
11:50 23.3 °C 13.4 °C 1020.5 hPa NE 4.8 km/h 9.7 km/h 54% 0 mm 609 W/m2
12:00 23.7 °C 13.8 °C 1020.2 hPa NE 4.8 km/h 14.5 km/h 54% 0 mm 556 W/m2
12:10 24 °C 13.8 °C 1020.2 hPa NNE 1.6 km/h 12.9 km/h 53% 0 mm 472 W/m2
12:20 24.2 °C 13.7 °C 1019.9 hPa NNE 8 km/h 12.9 km/h 52% 0 mm 791 W/m2
12:30 24.9 °C 13.7 °C 1019.9 hPa North 9.7 km/h 12.9 km/h 50% 0 mm 791 W/m2
12:40 25.5 °C 13.7 °C 1019.9 hPa NNE 3.2 km/h 12.9 km/h 48% 0 mm 790 W/m2
12:50 25.9 °C 13.7 °C 1019.9 hPa ENE 1.6 km/h 16.1 km/h 47% 0 mm 749 W/m2
13:00 26.4 °C 13.5 °C 1019.5 hPa NNE 4.8 km/h 12.9 km/h 45% 0 mm 781 W/m2
13:10 26.9 °C 13.6 °C 1019.5 hPa NNE 3.2 km/h 14.5 km/h 44% 0 mm 775 W/m2
13:20 27.1 °C 13.8 °C 1019.2 hPa WNW 3.2 km/h 11.3 km/h 44% 0 mm 767 W/m2
13:30 27.3 °C 13.3 °C 1019.2 hPa NW 4.8 km/h 20.9 km/h 42% 0 mm 758 W/m2
13:40 27.4 °C 12.6 °C 1019.2 hPa NNW 4.8 km/h 14.5 km/h 40% 0 mm 747 W/m2
13:50 27.6 °C 12.8 °C 1018.8 hPa WNW 3.2 km/h 12.9 km/h 40% 0 mm 734 W/m2
14:00 27.6 °C 12.8 °C 1018.8 hPa NW 4.8 km/h 14.5 km/h 40% 0 mm 720 W/m2
14:10 27.8 °C 12.9 °C 1018.8 hPa North 4.8 km/h 16.1 km/h 40% 0 mm 704 W/m2
14:20 27.9 °C 13.1 °C 1018.8 hPa NNE 4.8 km/h 20.9 km/h 40% 0 mm 687 W/m2
14:30 27.8 °C 12.9 °C 1018.8 hPa North 4.8 km/h 16.1 km/h 40% 0 mm 669 W/m2
14:40 27.7 °C 12.5 °C 1018.8 hPa NNW 8 km/h 22.5 km/h 39% 0 mm 637 W/m2
14:50 27.7 °C 12.5 °C 1018.5 hPa North 3.2 km/h 19.3 km/h 39% 0 mm 628 W/m2
15:10 27.7 °C 12.5 °C 1018.5 hPa North 4.8 km/h 20.9 km/h 39% 0 mm 582 W/m2
15:20 27.8 °C 12.6 °C 1018.5 hPa North 4.8 km/h 17.7 km/h 39% 0 mm 558 W/m2
15:30 27.9 °C 12.3 °C 1018.5 hPa North 9.7 km/h 16.1 km/h 38% 0 mm 533 W/m2
15:40 27.8 °C 12.2 °C 1018.5 hPa NNW 8 km/h 19.3 km/h 38% 0 mm 506 W/m2
15:50 27.9 °C 12.3 °C 1018.2 hPa North 9.7 km/h 19.3 km/h 38% 0 mm 479 W/m2
16:00 27.9 °C 12.3 °C 1018.5 hPa North 8 km/h 20.9 km/h 38% 0 mm 451 W/m2
16:10 27.7 °C 11.7 °C 1018.2 hPa North 8 km/h 20.9 km/h 37% 0 mm 318 W/m2
16:20 27.4 °C 11.8 °C 1018.5 hPa North 3.2 km/h 17.7 km/h 38% 0 mm 385 W/m2
16:30 27.3 °C 11.7 °C 1018.5 hPa North 8 km/h 14.5 km/h 38% 0 mm 361 W/m2
16:40 27.2 °C 11.7 °C 1018.5 hPa North 3.2 km/h 9.7 km/h 38% 0 mm 326 W/m2
16:50 27.2 °C 11.7 °C 1018.2 hPa North 3.2 km/h 9.7 km/h 38% 0 mm 298 W/m2
17:00 27 °C 11.4 °C 1018.2 hPa North 1.6 km/h 14.5 km/h 38% 0 mm 262 W/m2
17:10 26.9 °C 11.4 °C 1018.5 hPa WNW 3.2 km/h 11.3 km/h 38% 0 mm 233 W/m2
17:20 26.6 °C 11.5 °C 1018.5 hPa North 3.2 km/h 9.7 km/h 39% 0 mm 199 W/m2
17:30 26.4 °C 11.3 °C 1018.2 hPa WNW 3.2 km/h 8 km/h 39% 0 mm 166 W/m2
17:40 26.1 °C 11.1 °C 1018.5 hPa NW 1.6 km/h 12.9 km/h 39% 0 mm 136 W/m2
17:50 25.7 °C 10.7 °C 1018.5 hPa NW 1.6 km/h 9.7 km/h 39% 0 mm 108 W/m2
18:00 25.3 °C 10.7 °C 1018.5 hPa NW 3.2 km/h 9.7 km/h 40% 0 mm 82 W/m2
18:10 24.9 °C 10.4 °C 1018.5 hPa North 3.2 km/h 9.7 km/h 40% 0 mm 59 W/m2
18:20 24.5 °C 10.7 °C 1018.5 hPa North 4.8 km/h 11.3 km/h 42% 0 mm 39 W/m2
18:30 24 °C 10.3 °C 1018.5 hPa North 3.2 km/h 9.7 km/h 42% 0 mm 24 W/m2
18:40 23.6 °C 9.9 °C 1018.5 hPa North 4.8 km/h 11.3 km/h 42% 0 mm 11 W/m2
18:50 23.2 °C 9.6 °C 1018.5 hPa NNW 1.6 km/h 11.3 km/h 42% 0 mm 5 W/m2
19:00 22.8 °C 9.6 °C 1018.5 hPa NNW 4.8 km/h 11.3 km/h 43% 0 mm 0 W/m2
20:00 20.8 °C 9.5 °C 1019.5 hPa NNE 4 km/h 11.3 km/h 48.5% 0 mm 0 W/m2
20:10 19.1 °C 9.3 °C 1019.5 hPa SSE 3.2 km/h 9.7 km/h 53% 0 mm 0 W/m2
20:20 18.4 °C 9.2 °C 1019.9 hPa South 3.2 km/h 9.7 km/h 55% 0 mm 0 W/m2
20:30 18 °C 9.3 °C 1019.9 hPa SW 3.2 km/h 6.4 km/h 57% 0 mm 0 W/m2
20:40 17.6 °C 9.2 °C 1019.9 hPa SW 3.2 km/h 8 km/h 58% 0 mm 0 W/m2
20:50 17.2 °C 8.8 °C 1019.9 hPa West 4.8 km/h 8 km/h 58% 0 mm 0 W/m2
21:00 16.8 °C 8.7 °C 1019.9 hPa WSW 3.2 km/h 4.8 km/h 59% 0 mm 0 W/m2
21:10 16.3 °C 8.5 °C 1019.9 hPa WSW 3.2 km/h 4.8 km/h 60% 0 mm 0 W/m2
21:20 16 °C 8.2 °C 1019.9 hPa West 3.2 km/h 6.4 km/h 60% 0 mm 0 W/m2
21:30 15.6 °C 8.6 °C 1019.9 hPa West 4.8 km/h 8 km/h 63% 0 mm 0 W/m2
21:40 15.3 °C 8.3 °C 1019.9 hPa West 3.2 km/h 8 km/h 63% 0 mm 0 W/m2
21:50 14.9 °C 8.2 °C 1019.9 hPa SW 1.6 km/h 4.8 km/h 64% 0 mm 0 W/m2
22:00 14.6 °C 7.9 °C 1019.9 hPa Calm   3.2 km/h 64% 0 mm 0 W/m2
22:10 14.3 °C 7.8 °C 1019.9 hPa SSW 3.2 km/h 6.4 km/h 65% 0 mm 0 W/m2
22:20 14 °C 7.9 °C 1019.9 hPa Calm   8 km/h 67% 0 mm 0 W/m2
22:30 13.7 °C 7.9 °C 1020.2 hPa Calm   3.2 km/h 68% 0 mm 0 W/m2
22:40 13.5 °C 7.7 °C 1020.2 hPa SSE 1.6 km/h 3.2 km/h 68% 0 mm 0 W/m2
22:50 13.2 °C 7.4 °C 1020.2 hPa WSW 1.6 km/h 4.8 km/h 68% 0 mm 0 W/m2
23:00 13 °C 7.4 °C 1020.2 hPa Calm   8 km/h 69% 0 mm 0 W/m2
23:10 12.8 °C 7.3 °C 1020.2 hPa NNE 1.6 km/h 6.4 km/h 69% 0 mm 0 W/m2
23:20 12.7 °C 7.4 °C 1020.2 hPa East 1.6 km/h 4.8 km/h 70% 0 mm 0 W/m2
23:30 12.6 °C 7.3 °C 1020.2 hPa Calm   4.8 km/h 70% 0 mm 0 W/m2
23:40 12.4 °C 7.1 °C 1020.2 hPa WSW 1.6 km/h 4.8 km/h 70% 0 mm 0 W/m2
23:50 12.3 °C 7 °C 1020.2 hPa South 1.6 km/h 4.8 km/h 70% 0 mm 0 W/m2
Knjazevac, Serbia
Compliments of Weather Underground - 2 mb